Aeroporto :
LOGIN :

Iscrizione | Disclaimer

   EN    FR    IT 

 










Sommario :    VFR   VFR Marginale   IFR   IFR Intensivo   IFR Molto Intensivo
Visibilità : 
Base nubi : 
>= 8 km
>= 3000ft
5 / 8 km
1000 / 3000 ft
1500m / 5 km
500 / 1000 ft
800 / 1500m
200 / 500 ft
< 800m
< 200 ft
Simboli :   Temporali  Nebbia  Neve Forte  Precipitazioni Forti  Vento > 20 kt
SIGMETs :   Varie  Temporali  Ghiacco  Turbolenza  Onda orograficha  Ceneri Vulcaniche






- Altitudine del aeroporto : 16 ft
- Codice IATA : SDR


LEXJ - Santander Cantabria

ULTIMO METAR :
  • 250100Z AUTO 00000KT CAVOK 15/14 Q1012

METARs OBSOLETI :
  • 250030Z AUTO 00000KT CAVOK 16/15 Q1012
  • 250000Z AUTO 00000KT CAVOK 16/15 Q1013
  • 242330Z AUTO 00000KT CAVOK 16/15 Q1013
  • 242300Z AUTO VRB02KT 9000 NCD 17/15 Q1013
  • 242230Z AUTO VRB02KT CAVOK 17/15 Q1013
  • 242200Z AUTO VRB02KT CAVOK 18/15 Q1013
  • 242130Z AUTO 08003KT 040V130 CAVOK 19/16 Q1013
  • 242100Z 07003KT 020V120 CAVOK 19/16 Q1013
  • 242030Z 10004KT 050V130 CAVOK 19/16 Q1013

TAF TAF LEXJ
Valido dal 24 a 21 ore il 25 a 21 ore UTC


242000Z 2421/2521 07009KT 9999 FEW030 TX26/2511Z TN15/2504Z
PROB40
TEMPO 2422/2507 3000 BR BKN005
PROB30
TEMPO 2505/2507 0800 BCFG BKN002
PROB40
TEMPO 2509/2515 01010KT
PROB40
TEMPO 2515/2521 30010KT BKN005



MetMap, La meteo Aeronautica in un colpo d'occhio ! - Copyright ORBIFLY Dicembre 2007 - Disclaimer

ORBIFLY MET'MAP TEAM :

Programmazione e sviluppo : Alexandra Zaïnal
Concezione : Baudouin d'Aumeries
Supporto tecnico e logistico : Manuel Goepfert
Aiuto : Marc-Olivier Méhu
Aiuto per la traduzione : Arnaldo La Scala




FONTI E CREDITI :

   NOAA